createdAt,value
2018-05-03T00:00:46.307Z,8.33
2018-05-03T00:03:13.169Z,9.40
2018-05-03T00:05:39.372Z,8.30
2018-05-03T00:08:06.251Z,9.13
2018-05-03T00:10:32.662Z,8.37
2018-05-03T00:13:00.155Z,8.70
2018-05-03T00:15:27.815Z,10.70
2018-05-03T00:17:54.573Z,9.80
2018-05-03T00:20:21.053Z,8.17
2018-05-03T00:22:47.526Z,9.43
2018-05-03T00:25:14.583Z,8.40
2018-05-03T00:27:41.125Z,9.47
2018-05-03T00:30:08.389Z,9.83
2018-05-03T00:32:35.852Z,10.57
2018-05-03T00:35:03.439Z,11.63
2018-05-03T00:37:30.943Z,9.73
2018-05-03T00:39:57.727Z,9.87
2018-05-03T00:42:23.935Z,8.77
2018-05-03T00:44:51.335Z,9.23
2018-05-03T00:47:18.314Z,9.77
2018-05-03T00:49:44.482Z,9.60
2018-05-03T00:52:11.268Z,10.70
2018-05-03T00:54:46.813Z,8.93
2018-05-03T00:57:13.677Z,9.87
2018-05-03T00:59:40.601Z,8.80
2018-05-03T01:02:07.100Z,9.07
2018-05-03T01:04:33.382Z,8.80
2018-05-03T01:07:00.351Z,8.67
2018-05-03T01:09:26.866Z,8.50
2018-05-03T01:11:53.793Z,9.40
2018-05-03T01:14:20.385Z,8.60
2018-05-03T01:16:48.386Z,8.40
2018-05-03T01:19:14.592Z,8.77
2018-05-03T01:21:41.211Z,9.27
2018-05-03T01:24:08.795Z,8.93
2018-05-03T01:26:35.014Z,8.23
2018-05-03T01:29:01.829Z,9.00
2018-05-03T01:31:28.551Z,9.27
2018-05-03T01:33:56.437Z,9.70
2018-05-03T01:36:26.888Z,8.87
2018-05-03T01:38:53.579Z,9.83
2018-05-03T01:41:20.568Z,10.03
2018-05-03T01:43:47.403Z,10.60
2018-05-03T01:46:13.638Z,9.40
2018-05-03T01:48:39.877Z,9.40
2018-05-03T01:51:06.100Z,9.77
2018-05-03T01:53:33.069Z,10.00
2018-05-03T01:56:00.411Z,9.47
2018-05-03T01:58:26.638Z,10.27
2018-05-03T02:00:52.892Z,9.77
2018-05-03T02:03:19.671Z,9.43
2018-05-03T02:05:45.907Z,10.97
2018-05-03T02:08:12.786Z,10.33
2018-05-03T02:10:39.526Z,11.90
2018-05-03T02:13:06.292Z,11.10
2018-05-03T02:15:32.502Z,13.03
2018-05-03T02:17:58.682Z,11.43
2018-05-03T02:20:24.910Z,10.63
2018-05-03T02:22:52.092Z,11.13
2018-05-03T02:25:19.360Z,12.90
2018-05-03T02:27:46.341Z,11.80
2018-05-03T02:30:13.308Z,12.03
2018-05-03T02:32:39.661Z,11.80
2018-05-03T02:35:05.873Z,11.83
2018-05-03T02:37:32.616Z,12.33
2018-05-03T02:39:59.409Z,11.93
2018-05-03T02:42:27.253Z,11.60
2018-05-03T02:44:54.540Z,11.30
2018-05-03T02:47:22.437Z,11.37
2018-05-03T02:49:49.179Z,11.27
2018-05-03T02:52:15.921Z,11.90
2018-05-03T02:54:42.114Z,11.57
2018-05-03T02:57:20.999Z,13.00
2018-05-03T02:59:59.558Z,12.03
2018-05-03T03:05:52.161Z,11.77
2018-05-03T03:12:02.135Z,14.23
2018-05-03T03:14:48.464Z,12.47
2018-05-03T03:17:33.780Z,10.93
2018-05-03T03:20:34.918Z,10.60
2018-05-03T03:23:31.090Z,11.30
2018-05-03T03:26:26.050Z,10.70
2018-05-03T03:29:10.496Z,10.97
2018-05-03T03:31:56.388Z,11.80
2018-05-03T03:34:25.746Z,11.85
2018-05-03T03:37:16.491Z,10.70
2018-05-03T03:40:02.558Z,11.40
2018-05-03T03:45:40.972Z,10.80
2018-05-03T03:48:07.600Z,11.90
2018-05-03T03:50:33.799Z,11.82
2018-05-03T03:53:00.914Z,11.20
2018-05-03T03:55:29.670Z,12.73
2018-05-03T03:57:56.340Z,11.80
2018-05-03T04:00:22.578Z,11.60
2018-05-03T04:02:49.511Z,15.07
2018-05-03T04:05:16.891Z,12.80
2018-05-03T04:07:44.456Z,12.47
2018-05-03T04:10:11.175Z,11.73
2018-05-03T04:12:38.678Z,13.23
2018-05-03T04:15:06.364Z,11.60
2018-05-03T04:17:45.551Z,11.65
2018-05-03T04:20:28.074Z,12.00
2018-05-03T04:26:00.710Z,15.90
2018-05-03T04:28:27.656Z,12.37
2018-05-03T04:30:54.046Z,11.53
2018-05-03T04:33:22.043Z,11.80
2018-05-03T04:35:48.803Z,11.97
2018-05-03T04:38:15.550Z,12.30
2018-05-03T04:40:41.768Z,12.00
2018-05-03T04:43:08.555Z,11.93
2018-05-03T04:45:34.749Z,12.50
2018-05-03T04:48:01.641Z,11.80
2018-05-03T04:50:28.361Z,11.27
2018-05-03T04:52:55.381Z,12.67
2018-05-03T04:55:22.397Z,11.37
2018-05-03T04:57:49.957Z,11.77
2018-05-03T05:00:16.333Z,13.47
2018-05-03T05:02:43.574Z,14.03
2018-05-03T05:05:11.497Z,14.90
2018-05-03T05:07:38.304Z,14.97
2018-05-03T05:10:06.025Z,14.70
2018-05-03T05:12:33.693Z,13.37
2018-05-03T05:15:00.064Z,14.50
2018-05-03T05:17:26.309Z,20.13
2018-05-03T05:19:53.298Z,14.17
2018-05-03T05:22:20.034Z,13.87
2018-05-03T05:24:46.714Z,14.70
2018-05-03T05:27:14.343Z,14.33
2018-05-03T05:29:41.080Z,16.93
2018-05-03T05:32:07.261Z,14.57
2018-05-03T05:34:34.145Z,14.23
2018-05-03T05:37:00.498Z,13.70
2018-05-03T05:39:27.954Z,16.70
2018-05-03T05:41:55.032Z,16.53
2018-05-03T05:44:21.863Z,15.90
2018-05-03T05:46:48.032Z,14.27
2018-05-03T05:49:14.827Z,14.80
2018-05-03T05:51:41.386Z,16.37
2018-05-03T05:54:08.413Z,16.00
2018-05-03T05:56:34.959Z,16.10
2018-05-03T05:59:02.086Z,15.40
2018-05-03T06:01:29.613Z,17.83
2018-05-03T06:03:55.837Z,16.23
2018-05-03T06:06:22.549Z,17.23
2018-05-03T06:08:48.831Z,16.13
2018-05-03T06:11:15.909Z,15.70
2018-05-03T06:13:43.038Z,15.90
2018-05-03T06:16:09.638Z,14.53
2018-05-03T06:18:37.126Z,15.77
2018-05-03T06:21:03.652Z,15.97
2018-05-03T06:23:30.612Z,17.17
2018-05-03T06:25:56.897Z,14.23
2018-05-03T06:28:23.129Z,16.70
2018-05-03T06:30:50.300Z,15.80
2018-05-03T06:33:18.106Z,16.20
2018-05-03T06:35:45.117Z,16.23
2018-05-03T06:38:12.712Z,15.60
2018-05-03T06:40:39.712Z,14.90
2018-05-03T06:43:06.661Z,16.07
2018-05-03T06:45:32.864Z,16.53
2018-05-03T06:47:59.306Z,16.97
2018-05-03T06:50:26.847Z,17.00
2018-05-03T06:52:55.031Z,17.40
2018-05-03T06:55:21.825Z,18.40
2018-05-03T06:57:48.015Z,15.23
2018-05-03T07:00:14.214Z,17.23
2018-05-03T07:02:41.352Z,16.17
2018-05-03T07:05:08.670Z,17.70
2018-05-03T07:07:35.716Z,16.50
2018-05-03T07:10:03.584Z,16.83
2018-05-03T07:12:30.298Z,15.53
2018-05-03T07:14:56.493Z,16.43
2018-05-03T07:17:22.799Z,17.20
2018-05-03T07:19:48.977Z,17.90
2018-05-03T07:22:15.208Z,15.70
2018-05-03T07:24:41.387Z,19.53
2018-05-03T07:27:08.803Z,19.50
2018-05-03T07:29:36.296Z,18.50
2018-05-03T07:32:03.464Z,17.20
2018-05-03T07:34:29.653Z,18.67
2018-05-03T07:36:57.248Z,16.37
2018-05-03T07:39:23.868Z,18.80
2018-05-03T07:41:51.860Z,18.53
2018-05-03T07:44:18.302Z,18.23
2018-05-03T07:46:45.374Z,17.93
2018-05-03T07:49:11.745Z,17.33
2018-05-03T07:51:39.796Z,16.23
2018-05-03T07:54:06.881Z,17.20
2018-05-03T07:56:34.060Z,16.93
2018-05-03T07:59:00.212Z,16.47
2018-05-03T08:01:27.174Z,16.27
2018-05-03T08:03:53.539Z,15.77
2018-05-03T08:06:20.568Z,15.63
2018-05-03T08:08:54.302Z,14.60
2018-05-03T08:11:20.509Z,15.77
2018-05-03T08:13:47.263Z,14.97
2018-05-03T08:16:13.467Z,17.83
2018-05-03T08:18:39.681Z,15.03
2018-05-03T08:21:06.965Z,15.47
2018-05-03T08:23:33.765Z,17.10
2018-05-03T08:26:01.081Z,17.77
2018-05-03T08:28:28.628Z,16.20
2018-05-03T08:30:55.130Z,14.80
2018-05-03T08:33:22.587Z,17.33
2018-05-03T08:35:49.832Z,18.30
2018-05-03T08:38:17.477Z,16.77
2018-05-03T08:40:44.981Z,18.03
2018-05-03T08:43:11.219Z,16.70
2018-05-03T08:45:37.998Z,16.40
2018-05-03T08:48:05.598Z,17.77
2018-05-03T08:50:33.774Z,19.33
2018-05-03T08:53:00.065Z,16.67
2018-05-03T08:55:27.016Z,15.70
2018-05-03T08:57:53.781Z,16.93
2018-05-03T09:00:19.993Z,15.87
2018-05-03T09:02:47.076Z,18.87
2018-05-03T09:05:14.337Z,19.80
2018-05-03T09:07:42.022Z,20.03
2018-05-03T09:10:08.185Z,19.63
2018-05-03T09:12:35.271Z,18.23
2018-05-03T09:15:01.941Z,18.07
2018-05-03T09:17:28.982Z,21.73
2018-05-03T09:19:56.689Z,20.60
2018-05-03T09:22:23.065Z,20.83
2018-05-03T09:24:49.771Z,22.73
2018-05-03T09:27:16.288Z,21.47
2018-05-03T09:29:43.237Z,19.43
2018-05-03T09:32:09.415Z,22.40
2018-05-03T09:44:20.989Z,22.33
2018-05-03T09:46:47.955Z,21.70
2018-05-03T09:49:14.179Z,20.97
2018-05-03T09:51:41.318Z,19.90
2018-05-03T09:54:08.790Z,23.93
2018-05-03T09:56:34.989Z,22.23
2018-05-03T09:59:02.619Z,28.40
2018-05-03T10:01:29.362Z,20.93
2018-05-03T10:03:55.938Z,18.80
2018-05-03T10:06:23.476Z,18.23
2018-05-03T10:08:51.071Z,22.97
2018-05-03T10:11:17.273Z,21.33
2018-05-03T10:13:44.248Z,24.83
2018-05-03T10:16:11.216Z,22.70
2018-05-03T10:18:38.204Z,22.67
2018-05-03T10:21:12.026Z,23.70
2018-05-03T10:23:38.216Z,25.63
2018-05-03T10:26:04.939Z,20.60
2018-05-03T10:28:31.735Z,23.23
2018-05-03T10:30:58.824Z,20.30
2018-05-03T10:33:25.346Z,21.90
2018-05-03T10:35:52.866Z,23.97
2018-05-03T10:38:18.997Z,25.40
2018-05-03T10:40:46.250Z,20.67
2018-05-03T10:43:13.228Z,21.23
2018-05-03T10:45:40.231Z,23.20
2018-05-03T10:48:07.771Z,21.33
2018-05-03T10:50:33.964Z,22.17
2018-05-03T10:53:00.160Z,24.17
2018-05-03T10:55:26.365Z,23.67
2018-05-03T10:57:53.848Z,21.43
2018-05-03T11:00:20.081Z,23.57
2018-05-03T11:02:47.705Z,20.43
2018-05-03T11:05:13.939Z,22.97
2018-05-03T11:07:40.089Z,20.73
2018-05-03T11:10:06.253Z,24.17
2018-05-03T11:12:32.439Z,22.30
2018-05-03T11:14:59.423Z,22.27
2018-05-03T11:17:25.645Z,23.63
2018-05-03T11:19:52.590Z,20.97
2018-05-03T11:22:20.545Z,21.63
2018-05-03T11:24:46.790Z,25.00
2018-05-03T11:27:13.035Z,21.53
2018-05-03T11:29:40.278Z,24.60
2018-05-03T11:32:06.665Z,22.40
2018-05-03T11:34:33.906Z,21.40
2018-05-03T11:37:01.333Z,25.03
2018-05-03T11:39:27.563Z,26.10
2018-05-03T11:41:54.875Z,22.27
2018-05-03T11:44:22.011Z,23.87
2018-05-03T11:46:48.765Z,22.90
2018-05-03T11:49:15.022Z,21.37
2018-05-03T11:51:42.095Z,23.77
2018-05-03T11:54:09.320Z,22.43
2018-05-03T11:56:36.650Z,20.47
2018-05-03T11:59:04.630Z,21.33
2018-05-03T12:01:31.778Z,22.00
2018-05-03T12:03:59.297Z,24.20
2018-05-03T12:06:26.122Z,20.67
2018-05-03T12:08:53.303Z,21.13
2018-05-03T12:11:20.146Z,18.27
2018-05-03T12:13:48.145Z,22.23
2018-05-03T12:16:14.547Z,20.20
2018-05-03T12:18:42.231Z,20.57
2018-05-03T12:21:09.446Z,21.50
2018-05-03T12:23:36.215Z,22.10
2018-05-03T12:26:03.058Z,19.03
2018-05-03T12:28:29.646Z,20.97
2018-05-03T12:30:56.610Z,21.77
2018-05-03T12:33:22.973Z,21.47
2018-05-03T12:35:49.177Z,24.50
2018-05-03T12:38:15.379Z,19.13
2018-05-03T12:40:42.840Z,19.07
2018-05-03T12:43:10.782Z,19.83
2018-05-03T12:45:37.681Z,21.63
2018-05-03T12:48:05.148Z,19.67
2018-05-03T12:50:33.211Z,20.37
2018-05-03T12:52:59.980Z,20.63
2018-05-03T12:55:26.748Z,20.30
2018-05-03T12:57:53.799Z,19.97
2018-05-03T13:00:20.785Z,20.00
2018-05-03T13:02:47.799Z,18.57
2018-05-03T13:05:15.000Z,19.87
2018-05-03T13:07:42.331Z,18.53
2018-05-03T13:10:10.077Z,20.53
2018-05-03T13:12:37.248Z,20.93
2018-05-03T13:15:03.733Z,21.27
2018-05-03T13:17:31.734Z,20.20
2018-05-03T13:19:58.100Z,22.00
2018-05-03T13:22:25.141Z,21.23
2018-05-03T13:24:51.333Z,19.47
2018-05-03T13:27:18.296Z,20.17
2018-05-03T13:29:44.455Z,20.50
2018-05-03T13:32:11.482Z,20.53
2018-05-03T13:34:38.508Z,21.03
2018-05-03T13:37:05.162Z,19.23
2018-05-03T13:39:32.519Z,20.27
2018-05-03T13:41:59.526Z,22.93
2018-05-03T13:44:26.838Z,20.67
2018-05-03T13:46:54.395Z,22.37
2018-05-03T13:49:20.628Z,22.37
2018-05-03T13:51:46.848Z,20.70
2018-05-03T13:54:13.299Z,24.43
2018-05-03T13:56:40.375Z,21.53
2018-05-03T13:59:07.711Z,22.80
2018-05-03T14:01:34.853Z,23.23
2018-05-03T14:04:02.341Z,23.77
2018-05-03T14:06:30.342Z,24.27
2018-05-03T14:08:57.024Z,24.30
2018-05-03T14:11:23.226Z,23.77
2018-05-03T14:13:49.465Z,24.30
2018-05-03T14:16:16.086Z,23.77
2018-05-03T14:18:43.151Z,24.63
2018-05-03T14:21:09.401Z,24.50
2018-05-03T14:23:35.858Z,24.03
2018-05-03T14:26:03.185Z,24.47
2018-05-03T14:28:31.074Z,26.70
2018-05-03T14:30:57.338Z,23.33
2018-05-03T14:33:23.952Z,24.07
2018-05-03T14:35:51.337Z,22.80
2018-05-03T14:38:18.967Z,23.23
2018-05-03T14:40:45.256Z,23.20
2018-05-03T14:43:12.427Z,21.63
2018-05-03T14:45:39.361Z,22.87
2018-05-03T14:48:05.596Z,22.83
2018-05-03T14:50:33.227Z,22.67
2018-05-03T14:52:59.504Z,23.17
2018-05-03T14:55:26.247Z,23.33
2018-05-03T14:57:53.585Z,23.43
2018-05-03T15:00:20.668Z,23.07
2018-05-03T15:02:47.394Z,23.97
2018-05-03T15:05:13.748Z,22.30
2018-05-03T15:07:41.451Z,21.70
2018-05-03T15:10:07.676Z,21.40
2018-05-03T15:12:34.459Z,20.60
2018-05-03T15:15:00.653Z,19.47
2018-05-03T15:17:27.801Z,20.27
2018-05-03T15:19:55.187Z,19.27
2018-05-03T15:22:22.485Z,18.70
2018-05-03T15:24:50.076Z,18.47
2018-05-03T15:27:17.078Z,19.53
2018-05-03T15:29:43.270Z,17.37
2018-05-03T15:32:09.459Z,21.40
2018-05-03T15:34:35.681Z,22.60
2018-05-03T15:37:02.491Z,23.30
2018-05-03T15:39:29.886Z,20.40
2018-05-03T15:41:56.564Z,21.70
2018-05-03T15:44:22.832Z,21.30
2018-05-03T15:46:49.038Z,21.93
2018-05-03T15:49:15.802Z,23.70
2018-05-03T15:51:42.490Z,25.03
2018-05-03T15:54:08.725Z,22.53
2018-05-03T15:56:35.813Z,22.27
2018-05-03T15:59:03.031Z,23.60
2018-05-03T16:01:29.282Z,21.80
2018-05-03T16:03:55.984Z,20.80
2018-05-03T16:06:22.652Z,33.13
2018-05-03T16:08:49.262Z,24.27
2018-05-03T16:11:16.367Z,23.23
2018-05-03T16:13:43.245Z,24.63
2018-05-03T16:16:11.750Z,24.27
2018-05-03T16:18:37.975Z,24.93
2018-05-03T16:21:05.114Z,24.43
2018-05-03T16:23:31.767Z,25.57
2018-05-03T16:25:57.959Z,21.90
2018-05-03T16:28:25.067Z,23.43
2018-05-03T16:30:51.913Z,25.13
2018-05-03T16:33:18.769Z,23.43
2018-05-03T16:35:45.470Z,24.13
2018-05-03T16:38:13.646Z,23.57
2018-05-03T16:40:40.760Z,23.30
2018-05-03T16:43:06.982Z,23.27
2018-05-03T16:45:33.947Z,22.80
2018-05-03T16:48:00.305Z,24.30
2018-05-03T16:50:27.920Z,23.53
2018-05-03T16:52:54.144Z,35.07
2018-05-03T16:55:21.815Z,24.30
2018-05-03T16:57:48.570Z,23.00
2018-05-03T17:00:14.749Z,23.27
2018-05-03T17:02:41.178Z,28.47
2018-05-03T17:05:08.479Z,26.63
2018-05-03T17:07:36.618Z,21.93
2018-05-03T17:10:02.835Z,22.00
2018-05-03T17:12:29.038Z,22.60
2018-05-03T17:14:55.893Z,23.63
2018-05-03T17:17:22.113Z,25.63
2018-05-03T17:19:48.468Z,23.10
2018-05-03T17:22:15.492Z,23.03
2018-05-03T17:24:41.796Z,21.50
2018-05-03T17:27:08.682Z,23.30
2018-05-03T17:29:36.117Z,22.80
2018-05-03T17:32:03.301Z,21.97
2018-05-03T17:34:30.674Z,25.20
2018-05-03T17:36:57.597Z,22.67
2018-05-03T17:39:23.829Z,22.70
2018-05-03T17:41:50.049Z,21.03
2018-05-03T17:44:16.744Z,20.60
2018-05-03T17:46:44.702Z,21.80
2018-05-03T17:49:11.166Z,20.57
2018-05-03T17:51:37.989Z,23.20
2018-05-03T17:54:04.692Z,21.73
2018-05-03T17:56:31.953Z,20.93
2018-05-03T17:58:58.175Z,22.60
2018-05-03T18:01:26.080Z,22.03
2018-05-03T18:03:52.277Z,21.13
2018-05-03T18:06:18.487Z,23.87
2018-05-03T18:08:46.113Z,21.70
2018-05-03T18:11:12.965Z,20.27
2018-05-03T18:13:39.914Z,23.27
2018-05-03T18:16:06.156Z,19.57
2018-05-03T18:18:32.381Z,22.40
2018-05-03T18:20:59.269Z,21.70
2018-05-03T18:23:25.469Z,21.73
2018-05-03T18:25:52.952Z,20.23
2018-05-03T18:28:19.185Z,22.10
2018-05-03T18:30:45.835Z,21.30
2018-05-03T18:33:13.507Z,19.83
2018-05-03T18:35:39.735Z,23.70
2018-05-03T18:38:06.573Z,21.43
2018-05-03T18:40:34.034Z,19.37
2018-05-03T18:43:00.777Z,20.73
2018-05-03T18:45:26.981Z,22.47
2018-05-03T18:47:53.187Z,31.50
2018-05-03T18:50:19.575Z,24.90
2018-05-03T18:52:47.066Z,23.03
2018-05-03T18:55:14.157Z,23.80
2018-05-03T18:57:41.124Z,22.93
2018-05-03T19:00:08.124Z,20.00
2018-05-03T19:02:35.036Z,23.80
2018-05-03T19:05:02.058Z,21.73
2018-05-03T19:07:28.645Z,30.03
2018-05-03T19:09:55.528Z,19.33
2018-05-03T19:12:22.289Z,19.77
2018-05-03T19:14:48.734Z,52.83
2018-05-03T19:17:16.341Z,102.53
2018-05-03T19:19:42.904Z,41.93
2018-05-03T19:22:09.159Z,41.83
2018-05-03T19:24:36.528Z,36.70
2018-05-03T19:27:04.130Z,19.80
2018-05-03T19:29:32.126Z,18.67
2018-05-03T19:31:58.878Z,20.17
2018-05-03T19:34:25.874Z,20.10
2018-05-03T19:36:52.648Z,18.83
2018-05-03T19:39:18.969Z,18.07
2018-05-03T19:41:45.302Z,17.97
2018-05-03T19:44:13.069Z,20.23
2018-05-03T19:46:40.123Z,23.33
2018-05-03T19:49:06.542Z,17.83
2018-05-03T19:51:33.419Z,16.47
2018-05-03T19:54:00.935Z,18.43
2018-05-03T19:56:27.474Z,18.23
2018-05-03T19:58:53.733Z,18.30
2018-05-03T20:01:21.330Z,17.70
2018-05-03T20:03:48.688Z,19.73
2018-05-03T20:06:14.913Z,18.73
2018-05-03T20:08:41.766Z,20.40
2018-05-03T20:11:08.558Z,17.70
2018-05-03T20:13:35.542Z,18.43
2018-05-03T20:16:01.749Z,20.23
2018-05-03T20:18:27.972Z,18.13
2018-05-03T20:20:55.438Z,19.60
2018-05-03T20:23:21.960Z,18.10
2018-05-03T20:25:48.937Z,18.07
2018-05-03T20:28:15.290Z,18.83
2018-05-03T20:30:41.490Z,19.90
2018-05-03T20:33:07.745Z,19.87
2018-05-03T20:35:34.311Z,19.10
2018-05-03T20:38:00.996Z,17.50
2018-05-03T20:40:28.144Z,18.97
2018-05-03T20:42:54.369Z,18.43
2018-05-03T20:45:21.130Z,18.57
2018-05-03T20:47:47.946Z,19.20
2018-05-03T20:50:14.989Z,18.70
2018-05-03T20:52:42.073Z,20.83
2018-05-03T20:55:08.946Z,19.97
2018-05-03T20:57:35.277Z,19.67
2018-05-03T21:00:01.777Z,18.60
2018-05-03T21:02:27.980Z,19.67
2018-05-03T21:04:55.122Z,18.17
2018-05-03T21:07:21.886Z,17.50
2018-05-03T21:09:48.704Z,17.73
2018-05-03T21:12:15.172Z,17.40
2018-05-03T21:14:42.713Z,17.40
2018-05-03T21:17:09.506Z,15.77
2018-05-03T21:19:36.770Z,21.40
2018-05-03T21:22:03.717Z,18.97
2018-05-03T21:24:30.662Z,17.40
2018-05-03T21:26:58.156Z,16.73
2018-05-03T21:29:25.443Z,16.23
2018-05-03T21:31:51.627Z,20.43
2018-05-03T21:34:17.845Z,16.10
2018-05-03T21:36:44.729Z,16.43
2018-05-03T21:39:11.966Z,15.50
2018-05-03T21:41:39.208Z,14.83
2018-05-03T21:44:05.973Z,17.43
2018-05-03T21:46:32.740Z,13.20
2018-05-03T21:48:59.532Z,14.03
2018-05-03T21:51:26.307Z,14.30
2018-05-03T21:53:52.504Z,14.00
2018-05-03T21:56:19.662Z,13.20
2018-05-03T21:58:45.873Z,12.47
2018-05-03T22:01:12.571Z,13.33
2018-05-03T22:03:39.528Z,12.10
2018-05-03T22:06:07.480Z,12.23
2018-05-03T22:08:34.248Z,12.10
2018-05-03T22:11:01.014Z,12.03
2018-05-03T22:13:28.763Z,11.50
2018-05-03T22:15:55.776Z,11.13
2018-05-03T22:18:22.777Z,13.07
2018-05-03T22:20:49.476Z,12.93
2018-05-03T22:23:17.452Z,11.60
2018-05-03T22:25:44.221Z,12.17
2018-05-03T22:28:10.403Z,11.50
2018-05-03T22:30:44.738Z,11.73
2018-05-03T22:33:11.774Z,11.60
2018-05-03T22:35:38.705Z,10.27
2018-05-03T22:38:05.973Z,11.23
2018-05-03T22:40:33.005Z,11.60
2018-05-03T22:43:00.085Z,10.50
2018-05-03T22:45:26.305Z,11.60
2018-05-03T22:47:52.487Z,10.93
2018-05-03T22:50:18.708Z,19.10
2018-05-03T22:52:44.892Z,10.00
2018-05-03T22:55:11.577Z,10.00
2018-05-03T22:57:38.769Z,22.60
2018-05-03T23:00:05.722Z,10.60
2018-05-03T23:02:31.943Z,8.87
2018-05-03T23:04:59.525Z,10.20
2018-05-03T23:07:26.271Z,9.93
2018-05-03T23:09:53.085Z,9.70
2018-05-03T23:12:19.828Z,9.33
2018-05-03T23:14:46.583Z,8.50
2018-05-03T23:17:13.035Z,9.27
2018-05-03T23:19:41.205Z,9.07
2018-05-03T23:22:07.972Z,10.50
2018-05-03T23:24:34.174Z,10.43
2018-05-03T23:27:00.366Z,7.33
2018-05-03T23:29:27.524Z,8.07
2018-05-03T23:31:54.320Z,8.90
2018-05-03T23:34:21.085Z,7.00
2018-05-03T23:36:48.047Z,7.77
2018-05-03T23:39:14.221Z,7.33
2018-05-03T23:41:40.649Z,7.53
2018-05-03T23:44:06.849Z,8.17
2018-05-03T23:46:33.045Z,7.80
2018-05-03T23:48:59.996Z,8.37
2018-05-03T23:51:27.308Z,7.00
2018-05-03T23:53:53.801Z,8.30
2018-05-03T23:56:21.167Z,7.00
2018-05-03T23:58:48.976Z,7.10
